createdAt,value
2024-02-29T00:01:05.260Z,100.00
2024-02-29T00:03:31.952Z,100.00
2024-02-29T00:05:58.594Z,100.00
2024-02-29T00:08:25.155Z,100.00
2024-02-29T00:10:51.774Z,100.00
2024-02-29T00:13:18.476Z,100.00
2024-02-29T00:15:45.119Z,100.00
2024-02-29T00:18:11.781Z,100.00
2024-02-29T00:20:38.384Z,100.00
2024-02-29T00:23:05.141Z,100.00
2024-02-29T00:25:31.710Z,100.00
2024-02-29T00:27:58.355Z,100.00
2024-02-29T00:30:25.015Z,100.00
2024-02-29T00:32:53.259Z,100.00
2024-02-29T00:35:21.100Z,100.00
2024-02-29T00:37:47.652Z,99.99
2024-02-29T00:40:14.427Z,99.55
2024-02-29T00:42:41.020Z,99.45
2024-02-29T00:45:07.792Z,99.52
2024-02-29T00:47:34.444Z,99.12
2024-02-29T00:50:01.069Z,99.32
2024-02-29T00:52:27.671Z,98.68
2024-02-29T00:54:54.288Z,98.66
2024-02-29T00:57:20.912Z,98.53
2024-02-29T00:59:47.492Z,98.53
2024-02-29T01:02:14.127Z,98.53
2024-02-29T01:04:40.742Z,98.36
2024-02-29T01:07:07.427Z,98.26
2024-02-29T01:09:34.077Z,98.03
2024-02-29T01:12:00.803Z,97.96
2024-02-29T01:14:27.454Z,97.51
2024-02-29T01:16:54.144Z,97.13
2024-02-29T01:19:20.840Z,97.17
2024-02-29T01:21:47.534Z,97.13
2024-02-29T01:24:14.208Z,96.67
2024-02-29T01:26:40.826Z,96.47
2024-02-29T01:29:07.431Z,96.43
2024-02-29T01:31:34.013Z,95.78
2024-02-29T01:34:00.607Z,95.66
2024-02-29T01:36:27.210Z,94.67
2024-02-29T01:38:53.846Z,95.03
2024-02-29T01:41:20.468Z,94.34
2024-02-29T01:43:51.538Z,94.71
2024-02-29T01:46:18.148Z,94.79
2024-02-29T01:48:44.793Z,94.80
2024-02-29T01:51:11.371Z,94.73
2024-02-29T01:53:38.023Z,94.96
2024-02-29T01:56:04.948Z,94.58
2024-02-29T01:58:32.660Z,94.30
2024-02-29T02:00:59.292Z,94.17
2024-02-29T02:03:26.071Z,93.88
2024-02-29T02:05:52.618Z,94.23
2024-02-29T02:08:19.239Z,94.04
2024-02-29T02:10:45.850Z,93.92
2024-02-29T02:13:12.491Z,93.87
2024-02-29T02:15:39.103Z,93.63
2024-02-29T02:18:05.871Z,93.25
2024-02-29T02:20:32.489Z,93.06
2024-02-29T02:22:59.128Z,92.80
2024-02-29T02:25:25.712Z,92.77
2024-02-29T02:27:52.315Z,91.88
2024-02-29T02:30:18.959Z,92.00
2024-02-29T02:32:45.600Z,92.13
2024-02-29T02:35:12.199Z,91.95
2024-02-29T02:37:39.269Z,91.77
2024-02-29T02:40:06.860Z,91.65
2024-02-29T02:42:33.669Z,91.57
2024-02-29T02:45:00.428Z,91.18
2024-02-29T02:47:27.174Z,90.96
2024-02-29T02:49:53.811Z,91.36
2024-02-29T02:52:20.462Z,91.03
2024-02-29T02:54:47.113Z,91.15
2024-02-29T02:57:13.742Z,90.78
2024-02-29T02:59:40.389Z,90.93
2024-02-29T03:02:07.075Z,91.11
2024-02-29T03:04:33.803Z,91.34
2024-02-29T03:07:00.484Z,91.20
2024-02-29T03:09:27.102Z,91.49
2024-02-29T03:11:53.739Z,91.86
2024-02-29T03:14:20.324Z,91.32
2024-02-29T03:16:47.065Z,91.55
2024-02-29T03:19:13.768Z,91.76
2024-02-29T03:21:40.521Z,92.26
2024-02-29T03:24:07.269Z,92.36
2024-02-29T03:26:33.906Z,92.54
2024-02-29T03:29:00.534Z,92.51
2024-02-29T03:31:27.144Z,92.48
2024-02-29T03:33:53.768Z,92.84
2024-02-29T03:36:20.502Z,92.84
2024-02-29T03:38:47.081Z,92.68
2024-02-29T03:41:13.725Z,93.05
2024-02-29T03:43:40.309Z,93.07
2024-02-29T03:46:07.013Z,93.32
2024-02-29T03:48:33.766Z,93.22
2024-02-29T03:51:00.453Z,93.04
2024-02-29T03:53:27.066Z,93.54
2024-02-29T03:55:53.637Z,93.42
2024-02-29T03:58:20.254Z,93.35
2024-02-29T04:00:47.162Z,93.66
2024-02-29T04:03:13.878Z,93.53
2024-02-29T04:05:40.469Z,93.53
2024-02-29T04:08:07.715Z,93.44
2024-02-29T04:10:34.346Z,93.47
2024-02-29T04:13:00.991Z,93.09
2024-02-29T04:15:27.588Z,93.15
2024-02-29T04:17:54.202Z,92.82
2024-02-29T04:20:21.076Z,92.62
2024-02-29T04:22:47.745Z,92.41
2024-02-29T04:25:14.397Z,92.39
2024-02-29T04:27:41.034Z,92.45
2024-02-29T04:30:09.427Z,92.04
2024-02-29T04:32:37.709Z,91.66
2024-02-29T04:35:04.586Z,91.55
2024-02-29T04:37:31.172Z,91.55
2024-02-29T04:39:57.823Z,91.29
2024-02-29T04:42:24.440Z,90.98
2024-02-29T04:44:51.117Z,90.95
2024-02-29T04:47:17.655Z,91.28
2024-02-29T04:49:44.288Z,90.82
2024-02-29T04:52:10.905Z,90.63
2024-02-29T04:54:40.282Z,91.04
2024-02-29T04:57:07.125Z,90.42
2024-02-29T04:59:33.802Z,90.97
2024-02-29T05:02:02.372Z,90.63
2024-02-29T05:04:29.365Z,90.74
2024-02-29T05:06:55.998Z,90.69
2024-02-29T05:09:22.996Z,90.60
2024-02-29T05:11:49.593Z,90.51
2024-02-29T05:14:16.235Z,90.08
2024-02-29T05:16:42.780Z,90.30
2024-02-29T05:19:09.467Z,90.17
2024-02-29T05:21:36.058Z,90.40
2024-02-29T05:24:02.704Z,90.45
2024-02-29T05:26:29.285Z,89.97
2024-02-29T05:28:55.901Z,90.04
2024-02-29T05:31:22.468Z,90.12
2024-02-29T05:33:49.031Z,90.24
2024-02-29T05:36:15.816Z,90.05
2024-02-29T05:38:42.414Z,90.36
2024-02-29T05:41:09.070Z,90.38
2024-02-29T05:43:36.421Z,90.32
2024-02-29T05:46:03.314Z,90.64
2024-02-29T05:48:30.005Z,90.24
2024-02-29T05:50:56.601Z,90.39
2024-02-29T05:53:23.159Z,90.40
2024-02-29T05:55:49.685Z,90.22
2024-02-29T05:58:16.383Z,90.03
2024-02-29T06:00:43.143Z,90.22
2024-02-29T06:03:09.819Z,90.15
2024-02-29T06:05:36.399Z,90.58
2024-02-29T06:08:03.524Z,90.53
2024-02-29T06:10:30.116Z,90.35
2024-02-29T06:12:56.867Z,90.28
2024-02-29T06:15:23.479Z,90.23
2024-02-29T06:17:50.114Z,90.19
2024-02-29T06:20:16.828Z,90.43
2024-02-29T06:22:43.501Z,90.00
2024-02-29T06:25:10.948Z,90.17
2024-02-29T06:27:37.803Z,90.37
2024-02-29T06:30:06.727Z,90.37
2024-02-29T06:32:33.350Z,90.23
2024-02-29T06:34:59.925Z,90.15
2024-02-29T06:37:26.561Z,89.98
2024-02-29T06:39:56.020Z,89.81
2024-02-29T06:42:22.673Z,89.62
2024-02-29T06:44:49.270Z,89.17
2024-02-29T06:47:15.888Z,89.45
2024-02-29T06:49:42.501Z,89.59
2024-02-29T06:52:09.188Z,89.42
2024-02-29T06:54:35.866Z,88.72
2024-02-29T06:57:02.479Z,88.83
2024-02-29T06:59:29.112Z,88.72
2024-02-29T07:01:55.787Z,88.40
2024-02-29T07:04:22.432Z,88.17
2024-02-29T07:06:49.136Z,87.43
2024-02-29T07:09:15.726Z,87.43
2024-02-29T07:11:42.470Z,87.53
2024-02-29T07:14:09.135Z,87.30
2024-02-29T07:16:35.708Z,87.00
2024-02-29T07:19:02.329Z,86.88
2024-02-29T07:21:28.899Z,86.54
2024-02-29T07:23:55.496Z,86.17
2024-02-29T07:26:22.097Z,85.88
2024-02-29T07:28:48.697Z,85.93
2024-02-29T07:31:15.367Z,85.65
2024-02-29T07:33:42.121Z,85.50
2024-02-29T07:36:08.718Z,85.16
2024-02-29T07:38:35.414Z,85.02
2024-02-29T07:41:01.936Z,84.58
2024-02-29T07:43:28.550Z,84.04
2024-02-29T07:45:55.202Z,84.33
2024-02-29T07:48:21.931Z,84.10
2024-02-29T07:50:48.508Z,84.16
2024-02-29T07:53:15.143Z,83.93
2024-02-29T07:55:41.876Z,83.91
2024-02-29T07:58:09.525Z,83.25
2024-02-29T08:00:36.194Z,82.97
2024-02-29T08:03:02.727Z,82.37
2024-02-29T08:05:29.397Z,82.88
2024-02-29T08:07:55.980Z,82.54
2024-02-29T08:10:22.730Z,82.18
2024-02-29T08:12:49.392Z,80.89
2024-02-29T08:15:16.150Z,80.87
2024-02-29T08:17:42.777Z,81.09
2024-02-29T08:20:09.705Z,80.91
2024-02-29T08:22:36.661Z,79.78
2024-02-29T08:25:03.754Z,79.66
2024-02-29T08:27:30.464Z,79.24
2024-02-29T08:29:57.082Z,79.92
2024-02-29T08:32:23.764Z,79.16
2024-02-29T08:34:50.412Z,78.62
2024-02-29T08:37:17.135Z,78.12
2024-02-29T08:39:43.826Z,78.20
2024-02-29T08:42:10.468Z,78.11
2024-02-29T08:44:37.056Z,77.86
2024-02-29T08:47:03.693Z,77.30
2024-02-29T08:49:30.334Z,76.99
2024-02-29T08:51:57.045Z,75.88
2024-02-29T08:54:23.652Z,75.78
2024-02-29T08:56:50.289Z,75.21
2024-02-29T08:59:18.759Z,75.41
2024-02-29T09:01:45.721Z,74.50
2024-02-29T09:04:12.484Z,74.29
2024-02-29T09:06:41.818Z,73.92
2024-02-29T09:09:08.845Z,74.08
2024-02-29T09:11:35.602Z,72.84
2024-02-29T09:14:02.426Z,72.59
2024-02-29T09:16:29.180Z,73.09
2024-02-29T09:18:55.920Z,71.97
2024-02-29T09:21:22.528Z,72.37
2024-02-29T09:23:49.147Z,70.93
2024-02-29T09:26:15.808Z,71.11
2024-02-29T09:28:42.437Z,71.81
2024-02-29T09:31:09.111Z,70.97
2024-02-29T09:33:35.828Z,71.53
2024-02-29T09:36:08.691Z,71.21
2024-02-29T09:38:35.247Z,71.27
2024-02-29T09:41:07.478Z,70.42
2024-02-29T09:43:45.223Z,69.97
2024-02-29T09:46:12.038Z,69.52
2024-02-29T09:48:39.900Z,69.66
2024-02-29T09:51:06.629Z,70.30
2024-02-29T09:53:33.865Z,69.14
2024-02-29T09:56:00.428Z,69.46
2024-02-29T09:58:27.099Z,68.58
2024-02-29T10:00:53.808Z,67.27
2024-02-29T10:03:20.454Z,66.71
2024-02-29T10:05:47.139Z,65.50
2024-02-29T10:08:13.858Z,65.64
2024-02-29T10:10:40.716Z,65.47
2024-02-29T10:13:07.479Z,65.05
2024-02-29T10:15:34.202Z,64.94
2024-02-29T10:18:01.283Z,65.13
2024-02-29T10:20:28.258Z,65.43
2024-02-29T10:22:54.883Z,65.02
2024-02-29T10:25:22.540Z,64.23
2024-02-29T10:27:49.363Z,64.59
2024-02-29T10:30:20.100Z,64.14
2024-02-29T10:32:47.715Z,63.80
2024-02-29T10:35:23.618Z,64.12
2024-02-29T10:37:54.180Z,63.65
2024-02-29T10:40:21.011Z,62.76
2024-02-29T10:42:51.766Z,62.55
2024-02-29T10:45:18.727Z,62.22
2024-02-29T10:48:16.393Z,62.14
2024-02-29T10:51:23.222Z,60.94
2024-02-29T10:54:03.915Z,60.82
2024-02-29T10:56:30.776Z,59.58
2024-02-29T10:59:07.893Z,60.32
2024-02-29T11:01:38.632Z,59.57
2024-02-29T11:04:05.840Z,58.58
2024-02-29T11:06:52.710Z,58.10
2024-02-29T11:09:26.315Z,58.27
2024-02-29T11:12:13.873Z,57.89
2024-02-29T11:14:43.976Z,57.83
2024-02-29T11:17:10.574Z,58.11
2024-02-29T11:19:47.044Z,56.73
2024-02-29T11:22:18.480Z,56.22
2024-02-29T11:24:45.317Z,56.23
2024-02-29T11:27:12.773Z,55.63
2024-02-29T11:29:39.476Z,56.27
2024-02-29T11:32:08.030Z,55.53
2024-02-29T11:34:35.061Z,55.23
2024-02-29T11:37:01.836Z,54.98
2024-02-29T11:39:28.556Z,55.45
2024-02-29T11:42:05.078Z,55.08
2024-02-29T11:44:32.300Z,54.63
2024-02-29T11:46:59.427Z,55.02
2024-02-29T11:49:26.266Z,54.81
2024-02-29T11:51:53.542Z,54.61
2024-02-29T11:54:21.478Z,53.87
2024-02-29T11:56:49.975Z,54.32
2024-02-29T11:59:16.691Z,53.49
2024-02-29T12:01:43.774Z,53.79
2024-02-29T12:04:11.102Z,53.76
2024-02-29T12:06:38.446Z,54.74
2024-02-29T12:09:05.180Z,53.69
2024-02-29T12:11:31.879Z,52.50
2024-02-29T12:13:58.921Z,53.01
2024-02-29T12:16:25.603Z,51.95
2024-02-29T12:18:52.499Z,52.16
2024-02-29T12:21:19.102Z,51.43
2024-02-29T12:23:45.893Z,51.29
2024-02-29T12:26:15.585Z,50.99
2024-02-29T12:28:42.154Z,51.50
2024-02-29T12:31:09.546Z,50.71
2024-02-29T12:33:40.046Z,50.26
2024-02-29T12:36:11.917Z,50.35
2024-02-29T12:38:38.592Z,49.42
2024-02-29T12:41:06.193Z,49.94
2024-02-29T12:43:33.050Z,50.29
2024-02-29T12:45:59.771Z,49.13
2024-02-29T12:48:26.434Z,49.55
2024-02-29T12:50:53.061Z,49.46
2024-02-29T12:53:19.674Z,49.22
2024-02-29T12:55:46.366Z,49.31
2024-02-29T12:58:13.001Z,49.12
2024-02-29T13:00:39.745Z,48.64
2024-02-29T13:03:08.234Z,47.65
2024-02-29T13:05:35.638Z,47.67
2024-02-29T13:08:02.330Z,47.18
2024-02-29T13:10:29.037Z,46.99
2024-02-29T13:13:00.284Z,46.55
2024-02-29T13:15:32.909Z,44.91
2024-02-29T13:17:59.592Z,42.27
2024-02-29T13:20:26.202Z,39.98
2024-02-29T13:22:52.786Z,38.17
2024-02-29T13:25:19.666Z,35.55
2024-02-29T13:27:46.363Z,37.05
2024-02-29T13:30:13.116Z,39.77
2024-02-29T13:32:39.731Z,41.28
2024-02-29T13:35:06.811Z,37.80
2024-02-29T13:37:33.521Z,35.55
2024-02-29T13:40:00.237Z,36.92
2024-02-29T13:42:26.945Z,38.97
2024-02-29T13:44:53.566Z,40.18
2024-02-29T13:47:20.180Z,41.13
2024-02-29T13:49:46.857Z,41.55
2024-02-29T13:52:13.554Z,41.43
2024-02-29T13:54:40.253Z,41.45
2024-02-29T13:57:06.880Z,40.35
2024-02-29T13:59:33.518Z,37.11
2024-02-29T14:02:00.230Z,34.04
2024-02-29T14:04:26.940Z,33.42
2024-02-29T14:06:53.593Z,32.22
2024-02-29T14:09:23.938Z,34.56
2024-02-29T14:11:50.895Z,33.31
2024-02-29T14:14:17.545Z,32.29
2024-02-29T14:16:44.913Z,30.91
2024-02-29T14:19:11.667Z,30.57
2024-02-29T14:21:38.312Z,30.72
2024-02-29T14:24:05.101Z,31.62
2024-02-29T14:26:31.698Z,32.33
2024-02-29T14:28:58.264Z,34.25
2024-02-29T14:31:25.069Z,35.35
2024-02-29T14:33:51.994Z,36.90
2024-02-29T14:36:18.586Z,35.79
2024-02-29T14:38:45.287Z,36.18
2024-02-29T14:41:11.941Z,36.65
2024-02-29T14:43:38.530Z,36.92
2024-02-29T14:46:05.231Z,37.82
2024-02-29T14:48:31.896Z,37.76
2024-02-29T14:50:58.545Z,37.51
2024-02-29T14:53:25.161Z,37.88
2024-02-29T14:55:51.801Z,37.68
2024-02-29T14:58:18.483Z,37.72
2024-02-29T15:00:45.206Z,37.71
2024-02-29T15:03:11.845Z,37.84
2024-02-29T15:05:38.462Z,37.05
2024-02-29T15:08:05.392Z,37.60
2024-02-29T15:10:32.182Z,38.08
2024-02-29T15:12:58.991Z,37.66
2024-02-29T15:15:25.602Z,38.44
2024-02-29T15:17:52.231Z,39.08
2024-02-29T15:20:18.815Z,39.91
2024-02-29T15:22:46.260Z,41.59
2024-02-29T15:25:12.992Z,42.33
2024-02-29T15:27:39.773Z,43.18
2024-02-29T15:30:07.164Z,45.32
2024-02-29T15:32:33.870Z,45.62
2024-02-29T15:35:00.577Z,46.34
2024-02-29T15:37:27.279Z,46.63
2024-02-29T15:39:53.905Z,47.67
2024-02-29T15:42:20.494Z,47.36
2024-02-29T15:44:47.063Z,49.09
2024-02-29T15:47:13.707Z,49.34
2024-02-29T15:49:40.312Z,49.87
2024-02-29T15:52:07.028Z,50.66
2024-02-29T15:54:33.648Z,51.06
2024-02-29T15:57:00.312Z,51.87
2024-02-29T15:59:27.189Z,53.09
2024-02-29T16:01:53.821Z,53.17
2024-02-29T16:04:20.444Z,53.26
2024-02-29T16:06:47.106Z,53.76
2024-02-29T16:09:13.713Z,54.02
2024-02-29T16:11:40.362Z,54.35
2024-02-29T16:14:06.971Z,54.46
2024-02-29T16:16:33.643Z,54.61
2024-02-29T16:19:00.355Z,55.22
2024-02-29T16:21:26.939Z,55.24
2024-02-29T16:23:53.561Z,55.03
2024-02-29T16:26:20.185Z,54.90
2024-02-29T16:28:46.884Z,55.57
2024-02-29T16:31:13.498Z,55.82
2024-02-29T16:33:40.172Z,56.15
2024-02-29T16:36:07.455Z,56.38
2024-02-29T16:38:34.105Z,55.95
2024-02-29T16:41:00.723Z,56.25
2024-02-29T16:43:27.426Z,56.15
2024-02-29T16:45:54.092Z,56.46
2024-02-29T16:48:20.777Z,56.68
2024-02-29T16:50:47.424Z,56.96
2024-02-29T16:53:14.084Z,56.86
2024-02-29T16:55:40.680Z,57.45
2024-02-29T16:58:07.492Z,57.16
2024-02-29T17:00:34.153Z,57.08
2024-02-29T17:03:00.739Z,57.81
2024-02-29T17:05:27.409Z,58.12
2024-02-29T17:07:54.070Z,57.96
2024-02-29T17:10:20.708Z,58.50
2024-02-29T17:12:47.392Z,58.35
2024-02-29T17:15:14.106Z,59.56
2024-02-29T17:17:40.672Z,59.33
2024-02-29T17:20:07.653Z,60.00
2024-02-29T17:22:34.184Z,60.41
2024-02-29T17:25:00.990Z,61.46
2024-02-29T17:27:27.599Z,61.47
2024-02-29T17:29:54.173Z,62.84
2024-02-29T17:32:20.778Z,62.74
2024-02-29T17:34:47.303Z,62.99
2024-02-29T17:37:14.008Z,63.26
2024-02-29T17:39:40.658Z,62.83
2024-02-29T17:42:07.251Z,62.48
2024-02-29T17:44:33.878Z,62.23
2024-02-29T17:47:00.603Z,62.55
2024-02-29T17:49:27.310Z,62.32
2024-02-29T17:51:54.042Z,62.55
2024-02-29T17:54:20.644Z,62.42
2024-02-29T17:56:47.376Z,62.28
2024-02-29T17:59:14.094Z,62.52
2024-02-29T18:01:40.818Z,61.74
2024-02-29T18:04:07.559Z,61.83
2024-02-29T18:06:34.186Z,61.59
2024-02-29T18:09:00.812Z,62.08
2024-02-29T18:11:27.436Z,61.68
2024-02-29T18:13:54.023Z,61.80
2024-02-29T18:16:20.702Z,61.31
2024-02-29T18:18:47.295Z,60.63
2024-02-29T18:21:13.925Z,61.02
2024-02-29T18:23:40.620Z,59.99
2024-02-29T18:26:07.178Z,59.74
2024-02-29T18:28:33.781Z,59.65
2024-02-29T18:31:00.431Z,59.77
2024-02-29T18:33:27.109Z,59.57
2024-02-29T18:35:53.643Z,59.33
2024-02-29T18:38:20.268Z,59.56
2024-02-29T18:40:47.085Z,59.86
2024-02-29T18:43:13.724Z,59.36
2024-02-29T18:45:40.332Z,59.64
2024-02-29T18:48:07.894Z,59.81
2024-02-29T18:50:34.502Z,60.10
2024-02-29T18:53:01.125Z,59.88
2024-02-29T18:55:27.787Z,60.02
2024-02-29T18:57:54.473Z,60.04
2024-02-29T19:00:21.095Z,60.65
2024-02-29T19:02:47.690Z,61.35
2024-02-29T19:05:14.563Z,62.53
2024-02-29T19:07:41.208Z,63.03
2024-02-29T19:10:08.237Z,62.76
2024-02-29T19:12:35.007Z,63.99
2024-02-29T19:15:01.593Z,64.15
2024-02-29T19:17:28.272Z,64.89
2024-02-29T19:19:55.163Z,66.41
2024-02-29T19:22:21.803Z,66.75
2024-02-29T19:24:48.490Z,67.29
2024-02-29T19:27:15.248Z,67.74
2024-02-29T19:29:41.854Z,67.86
2024-02-29T19:32:08.492Z,69.02
2024-02-29T19:34:35.215Z,68.70
2024-02-29T19:37:01.908Z,69.40
2024-02-29T19:39:28.527Z,70.27
2024-02-29T19:41:55.138Z,70.64
2024-02-29T19:44:21.813Z,70.37
2024-02-29T19:46:48.767Z,70.63
2024-02-29T19:49:15.555Z,71.04
2024-02-29T19:51:42.433Z,71.71
2024-02-29T19:54:09.077Z,71.88
2024-02-29T19:56:35.647Z,72.78
2024-02-29T19:59:02.409Z,72.33
2024-02-29T20:01:29.221Z,73.27
2024-02-29T20:03:55.952Z,73.09
2024-02-29T20:06:22.715Z,73.40
2024-02-29T20:08:49.411Z,74.38
2024-02-29T20:11:16.226Z,73.80
2024-02-29T20:13:42.800Z,74.41
2024-02-29T20:16:09.511Z,74.89
2024-02-29T20:18:36.178Z,74.95
2024-02-29T20:21:03.075Z,74.73
2024-02-29T20:23:29.875Z,75.15
2024-02-29T20:25:56.572Z,75.14
2024-02-29T20:28:23.361Z,75.05
2024-02-29T20:30:50.203Z,75.79
2024-02-29T20:33:16.916Z,76.45
2024-02-29T20:35:43.494Z,76.19
2024-02-29T20:38:10.104Z,76.68
2024-02-29T20:40:36.782Z,76.51
2024-02-29T20:43:03.550Z,76.77
2024-02-29T20:45:31.016Z,76.33
2024-02-29T20:47:57.642Z,77.70
2024-02-29T20:50:24.252Z,77.67
2024-02-29T20:52:50.774Z,77.67
2024-02-29T20:55:17.422Z,77.96
2024-02-29T20:57:43.989Z,77.57
2024-02-29T21:00:11.236Z,78.24
2024-02-29T21:02:37.800Z,78.64
2024-02-29T21:05:04.601Z,78.69
2024-02-29T21:07:33.296Z,78.37
2024-02-29T21:10:00.015Z,78.87
2024-02-29T21:12:26.699Z,78.45
2024-02-29T21:14:53.289Z,78.52
2024-02-29T21:17:20.145Z,79.47
2024-02-29T21:19:46.730Z,79.44
2024-02-29T21:22:13.405Z,79.76
2024-02-29T21:24:40.498Z,79.12
2024-02-29T21:27:08.054Z,79.08
2024-02-29T21:29:34.717Z,80.32
2024-02-29T21:32:01.273Z,80.27
2024-02-29T21:34:27.956Z,80.54
2024-02-29T21:36:54.708Z,80.71
2024-02-29T21:39:28.436Z,80.20
2024-02-29T21:42:02.584Z,81.04
2024-02-29T21:44:31.357Z,80.54
2024-02-29T21:46:57.864Z,80.52
2024-02-29T21:49:24.574Z,80.97
2024-02-29T21:51:51.807Z,81.05
2024-02-29T21:54:18.363Z,81.57
2024-02-29T21:56:44.937Z,82.13
2024-02-29T21:59:11.538Z,81.60
2024-02-29T22:01:38.192Z,82.07
2024-02-29T22:04:05.268Z,82.61
2024-02-29T22:06:31.905Z,83.08
2024-02-29T22:08:58.464Z,82.76
2024-02-29T22:11:25.064Z,83.59
2024-02-29T22:13:51.636Z,83.76
2024-02-29T22:16:19.452Z,82.77
2024-02-29T22:18:46.075Z,83.52
2024-02-29T22:21:12.682Z,83.79
2024-02-29T22:23:39.339Z,84.12
2024-02-29T22:26:06.000Z,83.66
2024-02-29T22:28:32.678Z,83.95
2024-02-29T22:30:59.433Z,84.76
2024-02-29T22:33:26.014Z,83.85
2024-02-29T22:35:52.634Z,84.41
2024-02-29T22:38:19.142Z,84.08
2024-02-29T22:40:45.740Z,84.61
2024-02-29T22:43:12.698Z,84.82
2024-02-29T22:45:39.508Z,84.61
2024-02-29T22:48:06.429Z,84.69
2024-02-29T22:50:33.063Z,85.17
2024-02-29T22:52:59.693Z,85.35
2024-02-29T22:55:26.339Z,85.63
2024-02-29T22:57:53.139Z,85.49
2024-02-29T23:00:19.932Z,85.50
2024-02-29T23:02:46.550Z,86.13
2024-02-29T23:05:13.238Z,86.15
2024-02-29T23:07:39.816Z,85.92
2024-02-29T23:10:06.831Z,86.23
2024-02-29T23:12:33.485Z,86.48
2024-02-29T23:15:00.175Z,86.37
2024-02-29T23:17:26.796Z,86.13
2024-02-29T23:19:56.078Z,86.53
2024-02-29T23:22:22.890Z,86.15
2024-02-29T23:24:49.504Z,86.50
2024-02-29T23:27:16.081Z,86.98
2024-02-29T23:29:42.663Z,86.92
2024-02-29T23:32:09.390Z,86.56
2024-02-29T23:34:36.036Z,87.18
2024-02-29T23:37:02.700Z,87.28
2024-02-29T23:39:29.281Z,87.05
2024-02-29T23:41:56.570Z,86.59
2024-02-29T23:44:23.183Z,86.94
2024-02-29T23:46:49.795Z,86.81
2024-02-29T23:49:17.069Z,87.36
2024-02-29T23:51:43.711Z,87.11
2024-02-29T23:54:10.296Z,87.23
2024-02-29T23:56:36.883Z,87.61
2024-02-29T23:59:03.493Z,88.02
